Terminal Aerodrome Forecast
Issued by NWS

Home | Current Version | Previous Version | Graphics & Text | Print | Product List | Glossary On
Versions: 1 2 3 4 5 6 7 8 9 10 11 12
000
FTUS43 KTOP 011100
TAFFOE
TAF
KFOE 011123Z 0112/0212 14011KT P6SM BKN250
     FM011400 17014G24KT P6SM FEW030
     FM011800 18021G31KT P6SM SCT040
     FM020600 18014G22KT P6SM VCTS BKN035CB
     FM020800 34012G20KT 3SM -TSRA OVC010CB=

USA.gov is the U.S. government's official web portal to all federal, state and local government web resources and services.